Time;durP1;ratioP1;P1;durP2;ratioP2;P2;SDS_P1;SDS_P2;PMS_P1;PMS_P2;Temp;Humidity;BMP_temperature;BMP_pressure;BME280_temperature;BME280_humidity;BME280_pressure;Samples;Min_cycle;Max_cycle;Signal;HPM_P1;HPM_P2
2022/07/17 00:01:24;;;;;;;9.43;1.77;;;;;;;;;;9981108;29;20481;-67
2022/07/17 00:06:20;;;;;;;5.40;1.48;;;;;;;;;;9979868;29;20076;-66
2022/07/17 00:11:16;;;;;;;7.00;1.80;;;;;;;;;;10012008;28;20497;-67
2022/07/17 00:16:12;;;;;;;8.50;1.70;;;;;;;;;;9981190;29;20102;-67
2022/07/17 00:21:09;;;;;;;7.15;1.50;;;;;;;;;;9980460;29;20131;-67
2022/07/17 00:26:05;;;;;;;13.35;2.33;;;;;;;;;;9981462;29;20108;-67
2022/07/17 00:31:02;;;;;;;10.13;2.25;;;;;;;;;;9983011;29;20167;-67
2022/07/17 00:35:58;;;;;;;6.63;1.13;;;;;;;;;;9988208;29;20544;-66
2022/07/17 00:40:55;;;;;;;7.50;1.42;;;;;;;;;;9988583;29;20087;-66
2022/07/17 00:45:56;;;;;;;9.82;1.42;;;;;;;;;;9986038;29;20059;-66
2022/07/17 00:50:52;;;;;;;7.25;1.50;;;;;;;;;;9987959;29;20056;-67
2022/07/17 00:55:50;;;;;;;8.40;1.52;;;;;;;;;;9986950;29;20279;-67
2022/07/17 01:00:46;;;;;;;5.88;1.50;;;;;;;;;;9987207;29;20103;-67
2022/07/17 01:05:43;;;;;;;10.98;1.70;;;;;;;;;;9987183;29;20048;-67
2022/07/17 01:10:40;;;;;;;9.15;1.77;;;;;;;;;;9987232;29;20087;-67
2022/07/17 01:15:38;;;;;;;6.32;1.60;;;;;;;;;;9986825;29;20112;-67
2022/07/17 01:20:35;;;;;;;7.80;1.65;;;;;;;;;;9986521;29;20091;-67
2022/07/17 01:25:32;;;;;;;8.02;1.80;;;;;;;;;;9985204;29;20052;-67
2022/07/17 01:30:29;;;;;;;8.07;2.13;;;;;;;;;;9986354;29;20090;-67
2022/07/17 01:35:25;;;;;;;7.75;2.40;;;;;;;;;;9986358;29;20119;-67
2022/07/17 01:40:22;;;;;;;6.00;1.80;;;;;;;;;;9985078;29;20048;-67
2022/07/17 01:45:19;;;;;;;8.60;1.90;;;;;;;;;;9985422;29;20266;-67
2022/07/17 01:50:15;;;;;;;9.15;1.45;;;;;;;;;;9985494;29;20056;-67
2022/07/17 01:55:13;;;;;;;8.85;1.80;;;;;;;;;;9985710;29;20052;-67
2022/07/17 02:00:11;;;;;;;7.45;1.65;;;;;;;;;;9985611;29;20276;-67
2022/07/17 02:05:07;;;;;;;12.20;2.05;;;;;;;;;;9985295;29;20088;-66
2022/07/17 02:10:04;;;;;;;11.30;1.95;;;;;;;;;;9984562;29;20814;-67
2022/07/17 02:15:01;;;;;;;9.55;1.80;;;;;;;;;;9984342;29;20131;-67
2022/07/17 02:19:57;;;;;;;7.45;1.45;;;;;;;;;;9984808;29;20523;-67
2022/07/17 02:24:54;;;;;;;11.15;2.30;;;;;;;;;;9983411;29;20107;-67
2022/07/17 02:29:50;;;;;;;7.03;1.20;;;;;;;;;;9984304;29;20083;-67
2022/07/17 02:34:46;;;;;;;6.35;1.50;;;;;;;;;;9983545;29;20075;-66
2022/07/17 02:39:52;;;;;;;7.15;1.27;;;;;;;;;;9983481;29;20185;-67
2022/07/17 02:44:49;;;;;;;13.98;2.72;;;;;;;;;;9982722;29;20127;-67
2022/07/17 02:49:45;;;;;;;6.00;1.23;;;;;;;;;;9997779;29;20076;-66
2022/07/17 02:54:41;;;;;;;5.10;1.27;;;;;;;;;;9982350;29;20420;-66
2022/07/17 02:59:38;;;;;;;9.13;1.67;;;;;;;;;;9982313;29;20078;-67
2022/07/17 03:04:34;;;;;;;5.55;1.40;;;;;;;;;;9981653;29;20150;-66
2022/07/17 03:09:30;;;;;;;7.82;1.67;;;;;;;;;;9982841;29;20052;-66
2022/07/17 03:14:27;;;;;;;6.45;1.88;;;;;;;;;;9983231;29;20508;-66
2022/07/17 03:19:23;;;;;;;12.70;2.22;;;;;;;;;;9982902;29;20059;-67
2022/07/17 03:24:19;;;;;;;7.43;2.10;;;;;;;;;;9982476;29;20068;-66
2022/07/17 03:29:18;;;;;;;7.30;1.70;;;;;;;;;;9982246;29;20520;-66
2022/07/17 03:34:15;;;;;;;8.50;1.60;;;;;;;;;;9981572;29;20129;-67
2022/07/17 03:39:11;;;;;;;5.47;1.50;;;;;;;;;;9981605;29;20052;-67
2022/07/17 03:44:08;;;;;;;6.85;1.58;;;;;;;;;;9982317;29;20088;-66
2022/07/17 03:49:04;;;;;;;8.52;1.35;;;;;;;;;;9981771;29;20135;-66
2022/07/17 03:54:00;;;;;;;8.00;1.73;;;;;;;;;;9981129;29;20048;-67
2022/07/17 03:58:57;;;;;;;6.70;1.77;;;;;;;;;;9981564;29;20670;-67
2022/07/17 04:03:53;;;;;;;4.57;1.45;;;;;;;;;;9981364;29;20440;-67
2022/07/17 04:08:49;;;;;;;8.73;1.88;;;;;;;;;;9988527;29;20552;-67
2022/07/17 04:13:46;;;;;;;6.03;1.40;;;;;;;;;;9988526;29;20056;-67
2022/07/17 04:18:42;;;;;;;5.72;1.35;;;;;;;;;;9988742;29;20052;-67
2022/07/17 04:23:39;;;;;;;6.53;1.27;;;;;;;;;;9988950;29;20056;-66
2022/07/17 04:28:35;;;;;;;4.65;1.10;;;;;;;;;;9988240;29;20098;-66
2022/07/17 04:33:32;;;;;;;8.80;1.85;;;;;;;;;;9987866;29;20736;-67
2022/07/17 04:38:28;;;;;;;6.90;1.13;;;;;;;;;;9987757;29;20076;-67
2022/07/17 04:43:25;;;;;;;6.63;1.65;;;;;;;;;;9987483;29;20118;-67
2022/07/17 04:48:21;;;;;;;4.95;1.38;;;;;;;;;;9986857;29;20655;-67
2022/07/17 04:53:17;;;;;;;6.28;1.30;;;;;;;;;;9987582;29;20143;-67
2022/07/17 04:58:19;;;;;;;8.35;2.13;;;;;;;;;;9986919;29;20048;-66
2022/07/17 05:03:15;;;;;;;7.80;1.58;;;;;;;;;;9987123;29;20079;-66
2022/07/17 05:08:12;;;;;;;8.93;1.70;;;;;;;;;;9986345;29;20048;-66
2022/07/17 05:13:08;;;;;;;6.38;1.52;;;;;;;;;;9986337;29;20716;-66
2022/07/17 05:18:04;;;;;;;7.10;1.50;;;;;;;;;;9984732;29;20127;-67
2022/07/17 05:23:01;;;;;;;5.95;1.63;;;;;;;;;;9986628;29;20048;-67
2022/07/17 05:27:57;;;;;;;5.35;1.33;;;;;;;;;;9985575;29;20135;-66
2022/07/17 05:32:53;;;;;;;4.47;1.92;;;;;;;;;;9986022;29;20060;-66
2022/07/17 05:37:50;;;;;;;6.13;1.33;;;;;;;;;;9985253;29;20119;-67
2022/07/17 05:42:46;;;;;;;5.70;1.40;;;;;;;;;;9983614;29;20727;-67
2022/07/17 05:47:42;;;;;;;6.03;1.48;;;;;;;;;;9985459;29;20583;-67
2022/07/17 05:52:38;;;;;;;8.65;1.55;;;;;;;;;;9984714;29;20512;-66
2022/07/17 05:57:35;;;;;;;5.65;1.17;;;;;;;;;;9984923;29;20056;-67
2022/07/17 06:02:31;;;;;;;3.92;1.27;;;;;;;;;;9984403;29;20791;-67
2022/07/17 06:07:27;;;;;;;5.63;1.20;;;;;;;;;;9984074;29;20052;-67
2022/07/17 06:12:23;;;;;;;4.07;1.30;;;;;;;;;;9982461;29;20075;-67
2022/07/17 06:17:20;;;;;;;7.20;1.10;;;;;;;;;;10012753;29;20548;-66
2022/07/17 06:22:16;;;;;;;10.15;1.83;;;;;;;;;;10013839;28;20465;-66
2022/07/17 06:27:12;;;;;;;6.35;1.10;;;;;;;;;;9983557;29;20603;-67
2022/07/17 06:32:08;;;;;;;7.18;1.58;;;;;;;;;;9984056;29;20075;-66
2022/07/17 06:37:05;;;;;;;6.35;1.52;;;;;;;;;;9983515;29;20512;-67
2022/07/17 06:42:01;;;;;;;4.68;1.10;;;;;;;;;;9983795;29;20705;-67
2022/07/17 06:46:57;;;;;;;5.70;1.13;;;;;;;;;;9982491;29;20107;-66
2022/07/17 06:51:54;;;;;;;5.38;0.80;;;;;;;;;;9982033;29;20080;-67
2022/07/17 06:56:50;;;;;;;7.10;1.10;;;;;;;;;;9982073;29;20098;-67
2022/07/17 07:01:46;;;;;;;5.60;1.15;;;;;;;;;;9980644;29;20056;-67
2022/07/17 07:06:43;;;;;;;7.32;1.00;;;;;;;;;;9980023;29;20798;-66
2022/07/17 07:11:39;;;;;;;9.70;2.20;;;;;;;;;;9980405;29;20136;-67
2022/07/17 07:16:36;;;;;;;5.13;1.08;;;;;;;;;;9981239;29;20144;-66
2022/07/17 07:21:32;;;;;;;6.80;1.58;;;;;;;;;;9980454;29;20070;-66
2022/07/17 07:26:29;;;;;;;6.40;1.60;;;;;;;;;;9980705;29;20139;-66
2022/07/17 07:31:25;;;;;;;7.60;2.28;;;;;;;;;;9980704;29;20793;-66
2022/07/17 07:36:22;;;;;;;5.28;1.10;;;;;;;;;;9981662;29;20048;-67
2022/07/17 07:41:23;;;;;;;7.07;1.42;;;;;;;;;;9981533;29;20044;-66
2022/07/17 07:46:19;;;;;;;10.98;2.05;;;;;;;;;;9981801;29;20501;-66
2022/07/17 07:51:16;;;;;;;13.18;2.72;;;;;;;;;;9981141;29;20059;-66
2022/07/17 07:56:26;;;;;;;6.50;1.67;;;;;;;;;;9980793;29;20057;-66
2022/07/17 08:01:22;;;;;;;7.78;1.40;;;;;;;;;;9980713;29;20393;-66
2022/07/17 08:06:19;;;;;;;7.30;1.13;;;;;;;;;;9980417;29;20056;-66
2022/07/17 08:11:15;;;;;;;5.55;1.40;;;;;;;;;;9980935;29;20063;-66
2022/07/17 08:16:12;;;;;;;5.20;1.33;;;;;;;;;;9981248;29;20048;-66
2022/07/17 08:21:08;;;;;;;13.63;3.03;;;;;;;;;;9980938;29;20141;-66
2022/07/17 08:26:04;;;;;;;9.60;1.60;;;;;;;;;;9979455;29;20079;-66
2022/07/17 08:31:06;;;;;;;6.63;1.53;;;;;;;;;;9979917;29;20335;-66
2022/07/17 08:36:02;;;;;;;6.75;1.15;;;;;;;;;;9979159;29;20135;-66
2022/07/17 08:40:59;;;;;;;7.43;2.17;;;;;;;;;;9979118;29;20436;-66
2022/07/17 08:45:56;;;;;;;8.02;1.60;;;;;;;;;;9979653;29;20067;-66
2022/07/17 08:50:55;;;;;;;6.22;1.17;;;;;;;;;;9979143;29;20490;-66
2022/07/17 08:55:51;;;;;;;7.03;1.30;;;;;;;;;;9985701;29;20131;-67
2022/07/17 09:00:49;;;;;;;15.15;2.60;;;;;;;;;;9985867;29;20055;-66
2022/07/17 09:05:46;;;;;;;6.80;1.27;;;;;;;;;;9985624;29;20274;-66
2022/07/17 09:10:44;;;;;;;9.95;1.48;;;;;;;;;;9985061;29;20056;-66
2022/07/17 09:15:41;;;;;;;7.38;1.58;;;;;;;;;;9985409;29;20135;-66
2022/07/17 09:20:45;;;;;;;6.28;1.10;;;;;;;;;;9986595;29;20055;-66
2022/07/17 09:25:43;;;;;;;4.95;0.98;;;;;;;;;;9986360;29;20079;-66
2022/07/17 09:30:40;;;;;;;6.15;1.27;;;;;;;;;;9985234;29;20246;-67
2022/07/17 09:35:44;;;;;;;7.97;1.33;;;;;;;;;;9986514;29;20060;-67
2022/07/17 09:45:55;;;;;;;3.65;0.73;;;;;;;;;;9986588;29;20079;-66
2022/07/17 09:50:51;;;;;;;5.57;1.40;;;;;;;;;;9985049;29;20052;-66
2022/07/17 09:55:48;;;;;;;6.53;1.20;;;;;;;;;;9984996;29;20107;-66
2022/07/17 10:00:44;;;;;;;6.30;1.40;;;;;;;;;;9983557;29;20554;-66
2022/07/17 10:05:40;;;;;;;5.43;1.30;;;;;;;;;;10014012;28;20052;-67
2022/07/17 10:10:41;;;;;;;5.05;1.00;;;;;;;;;;9984622;29;20052;-67
2022/07/17 10:15:37;;;;;;;6.80;1.45;;;;;;;;;;9984668;29;20084;-67
2022/07/17 10:20:34;;;;;;;4.32;1.00;;;;;;;;;;9984303;29;20131;-67
2022/07/17 10:25:30;;;;;;;4.18;1.10;;;;;;;;;;9984312;29;20079;-66
2022/07/17 10:30:28;;;;;;;4.45;0.90;;;;;;;;;;9983462;29;20106;-67
2022/07/17 10:35:25;;;;;;;4.60;0.80;;;;;;;;;;9983659;29;20048;-67
2022/07/17 10:40:28;;;;;;;5.45;1.05;;;;;;;;;;9983496;29;20714;-66
2022/07/17 10:45:33;;;;;;;4.97;1.05;;;;;;;;;;9983706;29;20087;-66
2022/07/17 10:50:35;;;;;;;4.10;0.98;;;;;;;;;;9983648;29;20589;-65
2022/07/17 10:55:33;;;;;;;3.70;0.80;;;;;;;;;;9983116;29;20055;-67
2022/07/17 11:00:29;;;;;;;3.53;0.80;;;;;;;;;;9983235;29;20122;-67
2022/07/17 11:05:25;;;;;;;5.70;1.10;;;;;;;;;;9982715;29;20056;-66
2022/07/17 11:10:25;;;;;;;5.63;1.20;;;;;;;;;;9982320;29;20146;-67
2022/07/17 11:15:22;;;;;;;4.72;0.93;;;;;;;;;;9981797;29;20048;-67
2022/07/17 11:20:18;;;;;;;4.22;0.95;;;;;;;;;;9982886;29;20490;-67
2022/07/17 11:25:15;;;;;;;5.20;0.80;;;;;;;;;;9981635;29;20127;-67
2022/07/17 11:30:13;;;;;;;5.40;1.13;;;;;;;;;;9981907;29;20583;-67
2022/07/17 11:35:14;;;;;;;4.57;1.00;;;;;;;;;;9981820;29;20098;-67
2022/07/17 11:40:30;;;;;;;7.05;0.95;;;;;;;;;;9981602;29;20060;-67
2022/07/17 11:45:27;;;;;;;4.53;1.10;;;;;;;;;;9981989;29;20531;-67
2022/07/17 11:50:23;;;;;;;2.55;0.65;;;;;;;;;;9980825;29;20044;-67
2022/07/17 11:55:20;;;;;;;4.90;0.68;;;;;;;;;;9982299;29;20079;-67
2022/07/17 12:00:18;;;;;;;4.07;0.60;;;;;;;;;;9981560;29;20580;-66
2022/07/17 12:05:24;;;;;;;3.72;0.90;;;;;;;;;;9981827;29;20082;-67
2022/07/17 12:10:22;;;;;;;4.63;1.55;;;;;;;;;;9981265;29;20083;-67
2022/07/17 12:15:19;;;;;;;3.72;0.93;;;;;;;;;;9981432;29;20080;-67
2022/07/17 12:20:15;;;;;;;6.60;1.50;;;;;;;;;;9981020;29;20044;-67
2022/07/17 12:25:22;;;;;;;3.53;1.00;;;;;;;;;;9982375;29;20082;-69
2022/07/17 12:30:19;;;;;;;3.70;0.68;;;;;;;;;;9988847;29;20055;-67
2022/07/17 12:35:15;;;;;;;3.13;0.95;;;;;;;;;;9988742;29;20044;-66
2022/07/17 12:40:12;;;;;;;3.60;0.80;;;;;;;;;;9987756;29;20055;-66
2022/07/17 12:45:11;;;;;;;3.25;0.85;;;;;;;;;;9988487;29;20112;-66
2022/07/17 12:50:07;;;;;;;4.82;1.30;;;;;;;;;;9987290;29;20056;-67
2022/07/17 12:55:04;;;;;;;4.45;1.05;;;;;;;;;;9987532;29;20052;-66
2022/07/17 13:00:00;;;;;;;3.47;0.77;;;;;;;;;;9987269;29;20541;-66
2022/07/17 13:04:56;;;;;;;2.95;0.63;;;;;;;;;;9987053;29;20541;-66
2022/07/17 13:09:57;;;;;;;3.60;0.90;;;;;;;;;;9987215;29;20055;-66
2022/07/17 13:14:53;;;;;;;2.35;0.90;;;;;;;;;;9986470;29;20079;-66
2022/07/17 13:19:49;;;;;;;5.20;1.08;;;;;;;;;;9986111;29;20131;-67
2022/07/17 13:24:46;;;;;;;4.60;0.70;;;;;;;;;;9986469;29;20052;-66
2022/07/17 13:29:42;;;;;;;4.88;1.10;;;;;;;;;;9985008;29;20142;-66
2022/07/17 13:34:39;;;;;;;2.20;0.63;;;;;;;;;;9984698;29;20060;-67
2022/07/17 13:39:35;;;;;;;2.00;0.60;;;;;;;;;;9985296;29;20599;-66
2022/07/17 13:44:31;;;;;;;2.88;0.60;;;;;;;;;;9986653;29;20667;-66
2022/07/17 13:49:28;;;;;;;4.43;0.80;;;;;;;;;;9985703;29;20048;-66
2022/07/17 13:54:36;;;;;;;4.68;0.70;;;;;;;;;;9985161;29;20131;-66
2022/07/17 13:59:36;;;;;;;3.35;0.75;;;;;;;;;;9984877;29;20308;-66
2022/07/17 14:04:33;;;;;;;3.20;0.85;;;;;;;;;;9984919;29;20120;-66
2022/07/17 14:09:29;;;;;;;2.75;0.70;;;;;;;;;;9984492;29;20087;-66
2022/07/17 14:14:25;;;;;;;3.78;0.90;;;;;;;;;;9984532;29;20327;-67
2022/07/17 14:19:22;;;;;;;3.65;0.85;;;;;;;;;;9984716;29;20646;-66
2022/07/17 14:24:18;;;;;;;2.67;0.70;;;;;;;;;;9983997;29;20083;-67
2022/07/17 14:29:15;;;;;;;2.97;0.88;;;;;;;;;;9983379;29;20056;-66
2022/07/17 14:34:12;;;;;;;2.08;0.63;;;;;;;;;;9984001;29;20082;-67
2022/07/17 14:39:09;;;;;;;2.55;0.88;;;;;;;;;;9983288;29;20048;-66
2022/07/17 14:44:05;;;;;;;4.82;0.80;;;;;;;;;;9983608;29;20112;-66
2022/07/17 14:49:02;;;;;;;3.67;1.20;;;;;;;;;;9982302;29;20098;-67
2022/07/17 14:53:58;;;;;;;2.78;0.82;;;;;;;;;;9983134;29;20453;-67
2022/07/17 14:58:54;;;;;;;3.03;0.95;;;;;;;;;;9982885;29;20670;-67
2022/07/17 15:03:51;;;;;;;3.20;1.10;;;;;;;;;;10013664;29;20548;-66
2022/07/17 15:08:47;;;;;;;3.58;0.98;;;;;;;;;;9981676;29;20052;-66
2022/07/17 15:13:43;;;;;;;3.65;1.38;;;;;;;;;;9982621;29;20111;-66
2022/07/17 15:18:41;;;;;;;3.53;1.25;;;;;;;;;;9981796;29;20580;-66
2022/07/17 15:23:37;;;;;;;4.50;1.70;;;;;;;;;;9982508;29;20520;-66
2022/07/17 15:28:34;;;;;;;5.45;1.92;;;;;;;;;;9980312;29;20080;-66
2022/07/17 15:33:30;;;;;;;4.15;2.00;;;;;;;;;;9981623;29;20056;-66
2022/07/17 15:38:26;;;;;;;3.10;1.20;;;;;;;;;;9981355;29;20052;-66
2022/07/17 15:43:23;;;;;;;4.68;1.20;;;;;;;;;;9982161;29;20457;-67
2022/07/17 15:48:19;;;;;;;5.55;1.35;;;;;;;;;;9980476;29;20052;-67
2022/07/17 15:53:15;;;;;;;4.25;1.77;;;;;;;;;;9981760;29;20059;-67
2022/07/17 15:58:12;;;;;;;3.67;1.35;;;;;;;;;;9979814;29;20052;-67
2022/07/17 16:03:08;;;;;;;5.07;1.65;;;;;;;;;;9986954;29;20725;-67
2022/07/17 16:08:04;;;;;;;4.68;1.70;;;;;;;;;;9987992;29;20576;-67
2022/07/17 16:13:01;;;;;;;5.32;1.65;;;;;;;;;;9988944;29;20123;-66
2022/07/17 16:17:57;;;;;;;3.80;1.55;;;;;;;;;;9988583;29;20123;-66
2022/07/17 16:22:54;;;;;;;4.18;1.60;;;;;;;;;;9987912;29;20254;-66
2022/07/17 16:27:50;;;;;;;4.18;1.50;;;;;;;;;;9987446;29;20087;-67
2022/07/17 16:32:47;;;;;;;5.25;2.80;;;;;;;;;;9988054;29;20103;-66
2022/07/17 16:37:43;;;;;;;4.82;2.03;;;;;;;;;;9987474;29;20390;-66
2022/07/17 16:42:40;;;;;;;5.22;2.03;;;;;;;;;;9987916;29;20083;-66
2022/07/17 16:47:36;;;;;;;4.18;1.27;;;;;;;;;;9988060;29;20051;-67
2022/07/17 16:52:33;;;;;;;6.47;2.05;;;;;;;;;;9986607;29;20087;-66
2022/07/17 16:57:30;;;;;;;4.13;1.50;;;;;;;;;;9986710;29;20539;-67
2022/07/17 17:02:26;;;;;;;4.90;1.63;;;;;;;;;;9987230;29;20051;-67
2022/07/17 17:07:22;;;;;;;4.78;1.50;;;;;;;;;;9986360;29;20318;-66
2022/07/17 17:12:19;;;;;;;3.80;1.73;;;;;;;;;;9985229;29;20488;-66
2022/07/17 17:17:15;;;;;;;4.65;1.40;;;;;;;;;;9985961;29;20131;-66
2022/07/17 17:22:11;;;;;;;4.47;1.60;;;;;;;;;;9986102;29;20040;-66
2022/07/17 17:27:08;;;;;;;4.60;1.65;;;;;;;;;;9986082;29;20669;-67
2022/07/17 17:32:04;;;;;;;3.30;1.70;;;;;;;;;;9985451;29;20496;-67
2022/07/17 17:37:01;;;;;;;4.65;1.80;;;;;;;;;;9985472;29;20060;-66
2022/07/17 17:41:57;;;;;;;4.55;1.90;;;;;;;;;;9987256;29;20500;-67
2022/07/17 17:46:56;;;;;;;6.60;1.95;;;;;;;;;;10051512;28;20058;-67
2022/07/17 17:51:53;;;;;;;5.43;2.58;;;;;;;;;;10030411;28;20128;-66
2022/07/17 17:56:49;;;;;;;5.72;2.83;;;;;;;;;;10017398;28;20067;-66
2022/07/17 18:01:46;;;;;;;3.95;2.10;;;;;;;;;;10012496;28;20568;-66
2022/07/17 18:06:42;;;;;;;8.95;3.33;;;;;;;;;;10016168;28;20058;-66
2022/07/17 18:11:38;;;;;;;4.53;2.47;;;;;;;;;;10001872;28;20048;-66
2022/07/17 18:16:37;;;;;;;8.75;3.03;;;;;;;;;;10004432;28;20139;-66
2022/07/17 18:21:34;;;;;;;5.78;2.75;;;;;;;;;;9999325;28;20509;-66
2022/07/17 18:26:30;;;;;;;4.57;1.52;;;;;;;;;;10014019;28;20078;-67
2022/07/17 18:31:27;;;;;;;4.43;1.80;;;;;;;;;;10037431;28;20052;-66
2022/07/17 18:36:23;;;;;;;5.70;2.00;;;;;;;;;;10013554;28;20043;-65
2022/07/17 18:41:20;;;;;;;5.47;1.50;;;;;;;;;;10037094;28;20099;-65
2022/07/17 18:46:16;;;;;;;4.13;1.42;;;;;;;;;;10012005;28;20063;-66
2022/07/17 18:51:12;;;;;;;5.70;1.98;;;;;;;;;;10025321;28;20119;-65
2022/07/17 18:56:09;;;;;;;4.32;1.63;;;;;;;;;;10010407;28;20078;-66
2022/07/17 19:01:07;;;;;;;2.70;1.13;;;;;;;;;;10014741;28;20048;-66
2022/07/17 19:06:05;;;;;;;3.90;1.85;;;;;;;;;;10009681;28;20063;-65
2022/07/17 19:11:01;;;;;;;5.18;1.55;;;;;;;;;;10008413;28;20040;-66
2022/07/17 19:15:58;;;;;;;4.05;1.45;;;;;;;;;;10007185;28;20131;-66
2022/07/17 19:20:54;;;;;;;4.15;2.03;;;;;;;;;;9997368;28;20055;-66
2022/07/17 19:25:52;;;;;;;5.57;1.27;;;;;;;;;;10007531;28;20094;-66
2022/07/17 19:30:48;;;;;;;4.20;1.35;;;;;;;;;;10036412;28;20095;-66
2022/07/17 19:35:44;;;;;;;4.35;1.60;;;;;;;;;;10021378;28;20039;-66
2022/07/17 19:40:41;;;;;;;3.28;1.25;;;;;;;;;;10036209;28;20043;-66
2022/07/17 19:45:37;;;;;;;4.57;1.50;;;;;;;;;;10013323;28;20075;-66
2022/07/17 19:50:34;;;;;;;1.90;0.88;;;;;;;;;;10035887;28;20508;-66
2022/07/17 19:55:30;;;;;;;3.45;1.20;;;;;;;;;;10009835;28;20075;-66
2022/07/17 20:00:26;;;;;;;2.17;0.80;;;;;;;;;;10028597;28;20048;-66
2022/07/17 20:05:22;;;;;;;2.60;1.02;;;;;;;;;;10002540;28;20110;-66
2022/07/17 20:10:19;;;;;;;4.97;1.38;;;;;;;;;;10029603;28;20052;-66
2022/07/17 20:15:15;;;;;;;2.42;0.90;;;;;;;;;;10001861;28;20564;-66
2022/07/17 20:20:11;;;;;;;4.68;1.70;;;;;;;;;;10016038;28;20504;-66
2022/07/17 20:25:08;;;;;;;4.70;1.70;;;;;;;;;;10000219;28;20409;-66
2022/07/17 20:30:06;;;;;;;3.95;1.73;;;;;;;;;;10002075;28;20060;-66
2022/07/17 20:35:02;;;;;;;4.15;1.80;;;;;;;;;;10000607;28;20063;-66
2022/07/17 20:39:59;;;;;;;3.30;1.00;;;;;;;;;;9999412;29;20494;-66
2022/07/17 20:44:55;;;;;;;2.05;0.90;;;;;;;;;;9997752;28;20067;-66
2022/07/17 20:49:51;;;;;;;3.55;1.00;;;;;;;;;;10001957;28;20072;-66
2022/07/17 20:54:48;;;;;;;2.85;0.90;;;;;;;;;;10003986;28;20508;-66
2022/07/17 20:59:44;;;;;;;2.33;0.88;;;;;;;;;;10002845;28;20121;-66
2022/07/17 21:04:40;;;;;;;3.38;1.45;;;;;;;;;;10002525;28;20572;-66
2022/07/17 21:09:36;;;;;;;3.92;1.50;;;;;;;;;;10041026;28;20131;-66
2022/07/17 21:14:33;;;;;;;4.53;1.83;;;;;;;;;;10012229;28;20131;-67
2022/07/17 21:19:29;;;;;;;3.88;1.42;;;;;;;;;;10001923;28;20068;-66
2022/07/17 21:24:25;;;;;;;3.88;1.58;;;;;;;;;;10001299;28;20048;-66
2022/07/17 21:29:21;;;;;;;4.28;1.33;;;;;;;;;;10012858;28;20052;-66
2022/07/17 21:34:18;;;;;;;4.97;1.50;;;;;;;;;;10001163;28;20048;-66
2022/07/17 21:39:14;;;;;;;3.00;1.30;;;;;;;;;;10037788;28;20074;-68
2022/07/17 21:44:10;;;;;;;3.15;1.13;;;;;;;;;;10035231;28;20107;-68
2022/07/17 21:49:06;;;;;;;2.80;1.30;;;;;;;;;;10036877;28;20067;-68
2022/07/17 21:54:03;;;;;;;3.25;1.58;;;;;;;;;;10021241;28;20079;-68
2022/07/17 21:58:59;;;;;;;5.25;2.00;;;;;;;;;;10034978;28;20476;-68
2022/07/17 22:03:55;;;;;;;4.57;1.80;;;;;;;;;;10016818;28;20052;-68
2022/07/17 22:08:52;;;;;;;5.13;1.80;;;;;;;;;;10033842;28;20059;-68
2022/07/17 22:13:48;;;;;;;5.40;2.00;;;;;;;;;;10014803;28;20103;-68
2022/07/17 22:18:45;;;;;;;5.15;2.10;;;;;;;;;;10031419;28;20706;-68
2022/07/17 22:23:41;;;;;;;3.92;1.83;;;;;;;;;;9999683;28;20080;-68
2022/07/17 22:28:38;;;;;;;5.65;2.10;;;;;;;;;;10013747;28;20052;-68
2022/07/17 22:33:34;;;;;;;5.72;2.63;;;;;;;;;;9999101;28;20106;-68
2022/07/17 22:38:30;;;;;;;4.60;1.83;;;;;;;;;;10010845;28;20155;-68
2022/07/17 22:43:26;;;;;;;5.40;2.20;;;;;;;;;;9998931;28;20044;-68
2022/07/17 22:48:23;;;;;;;4.88;1.60;;;;;;;;;;10000471;28;20576;-68
2022/07/17 22:53:19;;;;;;;5.70;1.92;;;;;;;;;;9998920;28;20053;-68
2022/07/17 22:58:15;;;;;;;5.38;1.90;;;;;;;;;;10027599;28;20075;-68
2022/07/17 23:03:12;;;;;;;5.85;2.63;;;;;;;;;;10031742;28;20048;-68
2022/07/17 23:08:08;;;;;;;4.10;2.05;;;;;;;;;;9998103;28;20150;-68
2022/07/17 23:13:05;;;;;;;7.07;2.58;;;;;;;;;;9997030;28;20052;-68
2022/07/17 23:18:01;;;;;;;6.22;2.10;;;;;;;;;;10025229;28;20086;-68
2022/07/17 23:22:57;;;;;;;3.83;2.08;;;;;;;;;;10017480;28;20138;-68
2022/07/17 23:27:54;;;;;;;5.07;2.05;;;;;;;;;;10023426;28;20055;-68
2022/07/17 23:32:50;;;;;;;5.63;2.70;;;;;;;;;;10011772;28;20048;-68
2022/07/17 23:37:46;;;;;;;4.60;2.10;;;;;;;;;;10021133;28;20102;-68
2022/07/17 23:42:42;;;;;;;5.53;2.65;;;;;;;;;;9996874;28;20662;-68
2022/07/17 23:47:39;;;;;;;5.57;2.42;;;;;;;;;;10016646;28;20421;-68
2022/07/17 23:52:35;;;;;;;5.70;2.35;;;;;;;;;;9997081;28;20048;-68
2022/07/17 23:57:31;;;;;;;4.88;2.25;;;;;;;;;;10001813;28;20131;-68
